sensor_id;sensor_type;location;lat;lon;timestamp;P1;durP1;ratioP1;P2;durP2;ratioP2
23388;SDS011;11867;51.198;11.966;2023-06-26T00:00:53;5.90;;;5.15;;
23388;SDS011;11867;51.198;11.966;2023-06-26T00:02:16;5.40;;;4.35;;
23388;SDS011;11867;51.198;11.966;2023-06-26T00:03:38;5.15;;;4.65;;
23388;SDS011;11867;51.198;11.966;2023-06-26T00:05:01;6.15;;;4.35;;
23388;SDS011;11867;51.198;11.966;2023-06-26T00:06:24;5.40;;;4.57;;
23388;SDS011;11867;51.198;11.966;2023-06-26T00:07:48;5.70;;;5.05;;
23388;SDS011;11867;51.198;11.966;2023-06-26T00:09:12;5.18;;;4.70;;
23388;SDS011;11867;51.198;11.966;2023-06-26T00:10:34;5.15;;;4.63;;
23388;SDS011;11867;51.198;11.966;2023-06-26T00:11:58;8.85;;;4.53;;
23388;SDS011;11867;51.198;11.966;2023-06-26T00:13:21;5.70;;;5.03;;
23388;SDS011;11867;51.198;11.966;2023-06-26T00:14:44;5.47;;;4.18;;
23388;SDS011;11867;51.198;11.966;2023-06-26T00:16:07;4.90;;;4.43;;
23388;SDS011;11867;51.198;11.966;2023-06-26T00:17:30;5.72;;;5.07;;
23388;SDS011;11867;51.198;11.966;2023-06-26T00:18:58;6.03;;;5.35;;
23388;SDS011;11867;51.198;11.966;2023-06-26T00:20:20;5.90;;;5.10;;
23388;SDS011;11867;51.198;11.966;2023-06-26T00:21:45;7.20;;;5.28;;
23388;SDS011;11867;51.198;11.966;2023-06-26T00:23:11;5.55;;;5.05;;
23388;SDS011;11867;51.198;11.966;2023-06-26T00:24:35;5.70;;;5.10;;
23388;SDS011;11867;51.198;11.966;2023-06-26T00:25:57;5.50;;;5.00;;
23388;SDS011;11867;51.198;11.966;2023-06-26T00:27:20;5.72;;;5.20;;
23388;SDS011;11867;51.198;11.966;2023-06-26T00:28:43;5.10;;;4.57;;
23388;SDS011;11867;51.198;11.966;2023-06-26T00:30:06;5.15;;;4.75;;
23388;SDS011;11867;51.198;11.966;2023-06-26T00:31:29;6.85;;;4.80;;
23388;SDS011;11867;51.198;11.966;2023-06-26T00:32:51;8.10;;;4.93;;
23388;SDS011;11867;51.198;11.966;2023-06-26T00:34:14;10.80;;;5.40;;
23388;SDS011;11867;51.198;11.966;2023-06-26T00:35:38;5.30;;;4.80;;
23388;SDS011;11867;51.198;11.966;2023-06-26T00:36:59;5.72;;;5.22;;
23388;SDS011;11867;51.198;11.966;2023-06-26T00:38:24;5.07;;;4.57;;
23388;SDS011;11867;51.198;11.966;2023-06-26T00:39:47;6.85;;;5.43;;
23388;SDS011;11867;51.198;11.966;2023-06-26T00:41:09;6.22;;;5.00;;
23388;SDS011;11867;51.198;11.966;2023-06-26T00:42:34;5.60;;;5.10;;
23388;SDS011;11867;51.198;11.966;2023-06-26T00:43:57;5.63;;;5.03;;
23388;SDS011;11867;51.198;11.966;2023-06-26T00:45:19;5.55;;;4.97;;
23388;SDS011;11867;51.198;11.966;2023-06-26T00:47:02;5.40;;;4.90;;
23388;SDS011;11867;51.198;11.966;2023-06-26T00:48:25;5.93;;;5.00;;
23388;SDS011;11867;51.198;11.966;2023-06-26T00:49:48;5.40;;;4.90;;
23388;SDS011;11867;51.198;11.966;2023-06-26T00:51:10;9.52;;;5.13;;
23388;SDS011;11867;51.198;11.966;2023-06-26T00:52:33;6.10;;;5.30;;
23388;SDS011;11867;51.198;11.966;2023-06-26T00:53:58;8.05;;;5.07;;
23388;SDS011;11867;51.198;11.966;2023-06-26T00:55:21;6.90;;;5.35;;
23388;SDS011;11867;51.198;11.966;2023-06-26T00:56:44;6.70;;;4.90;;
23388;SDS011;11867;51.198;11.966;2023-06-26T00:58:08;5.50;;;4.85;;
23388;SDS011;11867;51.198;11.966;2023-06-26T00:59:31;5.47;;;4.97;;
23388;SDS011;11867;51.198;11.966;2023-06-26T01:00:53;8.95;;;5.30;;
23388;SDS011;11867;51.198;11.966;2023-06-26T01:02:16;5.80;;;5.20;;
23388;SDS011;11867;51.198;11.966;2023-06-26T01:03:41;6.38;;;5.07;;
23388;SDS011;11867;51.198;11.966;2023-06-26T01:05:04;7.63;;;5.20;;
23388;SDS011;11867;51.198;11.966;2023-06-26T01:06:29;6.05;;;4.97;;
23388;SDS011;11867;51.198;11.966;2023-06-26T01:07:57;8.45;;;5.00;;
23388;SDS011;11867;51.198;11.966;2023-06-26T01:09:22;8.38;;;5.22;;
23388;SDS011;11867;51.198;11.966;2023-06-26T01:10:45;5.05;;;4.65;;
23388;SDS011;11867;51.198;11.966;2023-06-26T01:12:08;6.25;;;4.90;;
23388;SDS011;11867;51.198;11.966;2023-06-26T01:13:31;6.22;;;4.72;;
23388;SDS011;11867;51.198;11.966;2023-06-26T01:14:54;9.10;;;5.30;;
23388;SDS011;11867;51.198;11.966;2023-06-26T01:16:16;5.32;;;4.82;;
23388;SDS011;11867;51.198;11.966;2023-06-26T01:17:42;6.65;;;5.40;;
23388;SDS011;11867;51.198;11.966;2023-06-26T01:19:08;6.70;;;5.25;;
23388;SDS011;11867;51.198;11.966;2023-06-26T01:20:32;5.85;;;5.10;;
23388;SDS011;11867;51.198;11.966;2023-06-26T01:22:00;8.32;;;5.40;;
23388;SDS011;11867;51.198;11.966;2023-06-26T01:23:37;8.15;;;5.25;;
23388;SDS011;11867;51.198;11.966;2023-06-26T01:25:11;7.03;;;4.95;;
23388;SDS011;11867;51.198;11.966;2023-06-26T01:26:40;5.97;;;5.38;;
23388;SDS011;11867;51.198;11.966;2023-06-26T01:28:06;7.65;;;5.28;;
23388;SDS011;11867;51.198;11.966;2023-06-26T01:29:30;6.10;;;5.13;;
23388;SDS011;11867;51.198;11.966;2023-06-26T01:30:55;6.38;;;4.97;;
23388;SDS011;11867;51.198;11.966;2023-06-26T01:32:17;6.95;;;5.25;;
23388;SDS011;11867;51.198;11.966;2023-06-26T01:33:41;6.05;;;5.10;;
23388;SDS011;11867;51.198;11.966;2023-06-26T01:35:05;9.60;;;4.97;;
23388;SDS011;11867;51.198;11.966;2023-06-26T01:36:29;6.38;;;5.78;;
23388;SDS011;11867;51.198;11.966;2023-06-26T01:37:51;5.80;;;5.05;;
23388;SDS011;11867;51.198;11.966;2023-06-26T01:39:14;5.78;;;4.70;;
23388;SDS011;11867;51.198;11.966;2023-06-26T01:40:38;8.25;;;5.70;;
23388;SDS011;11867;51.198;11.966;2023-06-26T01:42:03;5.78;;;5.28;;
23388;SDS011;11867;51.198;11.966;2023-06-26T01:43:27;8.45;;;4.93;;
23388;SDS011;11867;51.198;11.966;2023-06-26T01:44:57;5.93;;;5.15;;
23388;SDS011;11867;51.198;11.966;2023-06-26T01:46:29;5.93;;;5.35;;
23388;SDS011;11867;51.198;11.966;2023-06-26T01:47:58;8.98;;;5.50;;
23388;SDS011;11867;51.198;11.966;2023-06-26T01:49:25;6.93;;;5.80;;
23388;SDS011;11867;51.198;11.966;2023-06-26T01:52:21;7.88;;;4.72;;
23388;SDS011;11867;51.198;11.966;2023-06-26T01:53:50;6.88;;;4.95;;
23388;SDS011;11867;51.198;11.966;2023-06-26T01:55:17;7.65;;;5.53;;
23388;SDS011;11867;51.198;11.966;2023-06-26T01:56:44;7.10;;;5.35;;
23388;SDS011;11867;51.198;11.966;2023-06-26T01:58:08;6.35;;;5.18;;
23388;SDS011;11867;51.198;11.966;2023-06-26T01:59:31;6.03;;;5.32;;
23388;SDS011;11867;51.198;11.966;2023-06-26T02:00:55;8.98;;;5.82;;
23388;SDS011;11867;51.198;11.966;2023-06-26T02:02:18;6.88;;;5.72;;
23388;SDS011;11867;51.198;11.966;2023-06-26T02:03:40;6.88;;;5.72;;
23388;SDS011;11867;51.198;11.966;2023-06-26T02:05:03;10.82;;;5.57;;
23388;SDS011;11867;51.198;11.966;2023-06-26T02:06:26;6.00;;;5.38;;
23388;SDS011;11867;51.198;11.966;2023-06-26T02:07:49;8.38;;;5.20;;
23388;SDS011;11867;51.198;11.966;2023-06-26T02:09:12;6.78;;;5.68;;
23388;SDS011;11867;51.198;11.966;2023-06-26T02:10:34;5.47;;;4.93;;
23388;SDS011;11867;51.198;11.966;2023-06-26T02:11:58;6.53;;;5.30;;
23388;SDS011;11867;51.198;11.966;2023-06-26T02:13:21;6.75;;;5.50;;
23388;SDS011;11867;51.198;11.966;2023-06-26T02:14:44;8.52;;;5.85;;
23388;SDS011;11867;51.198;11.966;2023-06-26T02:16:07;6.45;;;5.70;;
23388;SDS011;11867;51.198;11.966;2023-06-26T02:17:29;8.95;;;5.70;;
23388;SDS011;11867;51.198;11.966;2023-06-26T02:18:51;8.40;;;5.78;;
23388;SDS011;11867;51.198;11.966;2023-06-26T02:20:13;8.50;;;5.50;;
23388;SDS011;11867;51.198;11.966;2023-06-26T02:21:37;6.20;;;5.60;;
23388;SDS011;11867;51.198;11.966;2023-06-26T02:23:00;6.93;;;5.72;;
23388;SDS011;11867;51.198;11.966;2023-06-26T02:24:22;6.00;;;5.40;;
23388;SDS011;11867;51.198;11.966;2023-06-26T02:25:45;6.95;;;5.30;;
23388;SDS011;11867;51.198;11.966;2023-06-26T02:27:07;6.60;;;5.55;;
23388;SDS011;11867;51.198;11.966;2023-06-26T02:28:32;6.18;;;5.47;;
23388;SDS011;11867;51.198;11.966;2023-06-26T02:29:55;6.35;;;5.60;;
23388;SDS011;11867;51.198;11.966;2023-06-26T02:31:18;8.48;;;5.55;;
23388;SDS011;11867;51.198;11.966;2023-06-26T02:32:40;7.50;;;5.18;;
23388;SDS011;11867;51.198;11.966;2023-06-26T02:34:03;10.05;;;6.18;;
23388;SDS011;11867;51.198;11.966;2023-06-26T02:35:25;8.25;;;5.40;;
23388;SDS011;11867;51.198;11.966;2023-06-26T02:36:48;6.30;;;5.22;;
23388;SDS011;11867;51.198;11.966;2023-06-26T02:38:11;6.93;;;5.65;;
23388;SDS011;11867;51.198;11.966;2023-06-26T02:39:34;6.95;;;5.65;;
23388;SDS011;11867;51.198;11.966;2023-06-26T02:40:57;11.93;;;6.43;;
23388;SDS011;11867;51.198;11.966;2023-06-26T02:42:20;10.10;;;5.63;;
23388;SDS011;11867;51.198;11.966;2023-06-26T02:43:44;7.80;;;5.85;;
23388;SDS011;11867;51.198;11.966;2023-06-26T02:45:07;6.32;;;5.72;;
23388;SDS011;11867;51.198;11.966;2023-06-26T02:46:31;12.70;;;6.15;;
23388;SDS011;11867;51.198;11.966;2023-06-26T02:47:53;9.55;;;5.43;;
23388;SDS011;11867;51.198;11.966;2023-06-26T02:49:16;7.93;;;5.60;;
23388;SDS011;11867;51.198;11.966;2023-06-26T02:50:42;8.30;;;5.43;;
23388;SDS011;11867;51.198;11.966;2023-06-26T02:52:07;14.13;;;7.20;;
23388;SDS011;11867;51.198;11.966;2023-06-26T02:53:30;8.73;;;5.53;;
23388;SDS011;11867;51.198;11.966;2023-06-26T02:54:54;7.45;;;6.03;;
23388;SDS011;11867;51.198;11.966;2023-06-26T02:56:16;6.15;;;5.20;;
23388;SDS011;11867;51.198;11.966;2023-06-26T02:57:38;8.43;;;6.68;;
23388;SDS011;11867;51.198;11.966;2023-06-26T02:59:02;7.03;;;6.30;;
23388;SDS011;11867;51.198;11.966;2023-06-26T03:00:25;9.70;;;5.78;;
23388;SDS011;11867;51.198;11.966;2023-06-26T03:01:47;6.20;;;5.60;;
23388;SDS011;11867;51.198;11.966;2023-06-26T03:03:10;6.75;;;5.70;;
23388;SDS011;11867;51.198;11.966;2023-06-26T03:04:34;6.95;;;5.82;;
23388;SDS011;11867;51.198;11.966;2023-06-26T03:05:58;8.32;;;5.35;;
23388;SDS011;11867;51.198;11.966;2023-06-26T03:07:21;8.57;;;5.82;;
23388;SDS011;11867;51.198;11.966;2023-06-26T03:08:44;6.53;;;5.68;;
23388;SDS011;11867;51.198;11.966;2023-06-26T03:10:07;6.40;;;5.80;;
23388;SDS011;11867;51.198;11.966;2023-06-26T03:11:30;12.60;;;5.78;;
23388;SDS011;11867;51.198;11.966;2023-06-26T03:12:52;9.27;;;5.22;;
23388;SDS011;11867;51.198;11.966;2023-06-26T03:14:16;8.90;;;5.88;;
23388;SDS011;11867;51.198;11.966;2023-06-26T03:15:39;12.23;;;6.50;;
23388;SDS011;11867;51.198;11.966;2023-06-26T03:17:01;7.25;;;5.28;;
23388;SDS011;11867;51.198;11.966;2023-06-26T03:18:25;10.02;;;5.95;;
23388;SDS011;11867;51.198;11.966;2023-06-26T03:19:48;6.50;;;4.95;;
23388;SDS011;11867;51.198;11.966;2023-06-26T03:21:11;6.97;;;6.20;;
23388;SDS011;11867;51.198;11.966;2023-06-26T03:22:34;9.80;;;5.85;;
23388;SDS011;11867;51.198;11.966;2023-06-26T03:23:57;7.70;;;5.65;;
23388;SDS011;11867;51.198;11.966;2023-06-26T03:25:19;9.23;;;5.82;;
23388;SDS011;11867;51.198;11.966;2023-06-26T03:26:42;7.65;;;5.93;;
23388;SDS011;11867;51.198;11.966;2023-06-26T03:28:05;10.95;;;6.65;;
23388;SDS011;11867;51.198;11.966;2023-06-26T03:29:30;8.13;;;5.35;;
23388;SDS011;11867;51.198;11.966;2023-06-26T03:30:52;8.38;;;5.72;;
23388;SDS011;11867;51.198;11.966;2023-06-26T03:32:14;7.13;;;6.28;;
23388;SDS011;11867;51.198;11.966;2023-06-26T03:33:37;8.90;;;6.00;;
23388;SDS011;11867;51.198;11.966;2023-06-26T03:35:00;7.88;;;5.90;;
23388;SDS011;11867;51.198;11.966;2023-06-26T03:36:27;7.18;;;5.85;;
23388;SDS011;11867;51.198;11.966;2023-06-26T03:37:50;14.70;;;6.25;;
23388;SDS011;11867;51.198;11.966;2023-06-26T03:39:13;15.80;;;6.20;;
23388;SDS011;11867;51.198;11.966;2023-06-26T03:40:35;10.95;;;6.50;;
23388;SDS011;11867;51.198;11.966;2023-06-26T03:41:59;7.47;;;5.82;;
23388;SDS011;11867;51.198;11.966;2023-06-26T03:43:22;11.95;;;6.05;;
23388;SDS011;11867;51.198;11.966;2023-06-26T03:44:46;10.13;;;5.43;;
23388;SDS011;11867;51.198;11.966;2023-06-26T03:46:10;8.70;;;5.88;;
23388;SDS011;11867;51.198;11.966;2023-06-26T03:47:33;10.82;;;5.32;;
23388;SDS011;11867;51.198;11.966;2023-06-26T03:48:57;6.78;;;5.50;;
23388;SDS011;11867;51.198;11.966;2023-06-26T03:50:19;9.50;;;5.63;;
23388;SDS011;11867;51.198;11.966;2023-06-26T03:51:41;6.15;;;5.55;;
23388;SDS011;11867;51.198;11.966;2023-06-26T03:53:04;10.55;;;6.18;;
23388;SDS011;11867;51.198;11.966;2023-06-26T03:54:27;9.68;;;6.10;;
23388;SDS011;11867;51.198;11.966;2023-06-26T03:55:50;8.98;;;5.95;;
23388;SDS011;11867;51.198;11.966;2023-06-26T03:57:13;7.97;;;6.30;;
23388;SDS011;11867;51.198;11.966;2023-06-26T03:58:36;10.98;;;5.97;;
23388;SDS011;11867;51.198;11.966;2023-06-26T04:00:00;11.20;;;6.80;;
23388;SDS011;11867;51.198;11.966;2023-06-26T04:01:27;8.13;;;5.70;;
23388;SDS011;11867;51.198;11.966;2023-06-26T04:02:50;6.30;;;5.45;;
23388;SDS011;11867;51.198;11.966;2023-06-26T04:04:13;11.35;;;6.55;;
23388;SDS011;11867;51.198;11.966;2023-06-26T04:05:35;11.80;;;6.35;;
23388;SDS011;11867;51.198;11.966;2023-06-26T04:06:59;7.03;;;5.90;;
23388;SDS011;11867;51.198;11.966;2023-06-26T04:08:23;7.35;;;6.05;;
23388;SDS011;11867;51.198;11.966;2023-06-26T04:09:48;9.15;;;6.50;;
23388;SDS011;11867;51.198;11.966;2023-06-26T04:11:11;9.10;;;7.03;;
23388;SDS011;11867;51.198;11.966;2023-06-26T04:12:33;8.00;;;6.30;;
23388;SDS011;11867;51.198;11.966;2023-06-26T04:13:55;7.82;;;5.82;;
23388;SDS011;11867;51.198;11.966;2023-06-26T04:15:20;10.70;;;6.60;;
23388;SDS011;11867;51.198;11.966;2023-06-26T04:16:43;8.73;;;6.40;;
23388;SDS011;11867;51.198;11.966;2023-06-26T04:18:07;7.60;;;5.97;;
23388;SDS011;11867;51.198;11.966;2023-06-26T04:19:30;7.47;;;6.47;;
23388;SDS011;11867;51.198;11.966;2023-06-26T04:21:04;12.20;;;6.68;;
23388;SDS011;11867;51.198;11.966;2023-06-26T04:22:29;9.55;;;6.07;;
23388;SDS011;11867;51.198;11.966;2023-06-26T04:23:53;8.35;;;6.50;;
23388;SDS011;11867;51.198;11.966;2023-06-26T04:25:16;6.90;;;6.18;;
23388;SDS011;11867;51.198;11.966;2023-06-26T04:26:39;16.23;;;6.25;;
23388;SDS011;11867;51.198;11.966;2023-06-26T04:28:03;7.07;;;5.82;;
23388;SDS011;11867;51.198;11.966;2023-06-26T04:29:26;8.02;;;5.80;;
23388;SDS011;11867;51.198;11.966;2023-06-26T04:30:50;11.38;;;6.22;;
23388;SDS011;11867;51.198;11.966;2023-06-26T04:32:13;7.80;;;6.30;;
23388;SDS011;11867;51.198;11.966;2023-06-26T04:33:36;6.85;;;6.13;;
23388;SDS011;11867;51.198;11.966;2023-06-26T04:35:02;11.10;;;5.90;;
23388;SDS011;11867;51.198;11.966;2023-06-26T04:36:25;5.88;;;5.25;;
23388;SDS011;11867;51.198;11.966;2023-06-26T04:37:50;10.25;;;6.28;;
23388;SDS011;11867;51.198;11.966;2023-06-26T04:39:15;7.90;;;5.45;;
23388;SDS011;11867;51.198;11.966;2023-06-26T04:40:38;8.90;;;6.00;;
23388;SDS011;11867;51.198;11.966;2023-06-26T04:42:01;7.47;;;5.78;;
23388;SDS011;11867;51.198;11.966;2023-06-26T04:43:24;10.05;;;6.25;;
23388;SDS011;11867;51.198;11.966;2023-06-26T04:44:46;9.93;;;5.82;;
23388;SDS011;11867;51.198;11.966;2023-06-26T04:46:11;7.00;;;5.55;;
23388;SDS011;11867;51.198;11.966;2023-06-26T04:47:34;9.77;;;5.32;;
23388;SDS011;11867;51.198;11.966;2023-06-26T04:48:57;12.40;;;5.32;;
23388;SDS011;11867;51.198;11.966;2023-06-26T04:50:20;6.18;;;5.30;;
23388;SDS011;11867;51.198;11.966;2023-06-26T04:51:42;9.43;;;5.13;;
23388;SDS011;11867;51.198;11.966;2023-06-26T04:53:05;9.65;;;6.30;;
23388;SDS011;11867;51.198;11.966;2023-06-26T04:54:27;6.82;;;4.97;;
23388;SDS011;11867;51.198;11.966;2023-06-26T04:55:50;10.75;;;5.57;;
23388;SDS011;11867;51.198;11.966;2023-06-26T04:57:14;8.15;;;5.00;;
23388;SDS011;11867;51.198;11.966;2023-06-26T04:58:38;8.13;;;5.57;;
23388;SDS011;11867;51.198;11.966;2023-06-26T05:00:01;10.68;;;6.15;;
23388;SDS011;11867;51.198;11.966;2023-06-26T05:01:30;10.05;;;6.13;;
23388;SDS011;11867;51.198;11.966;2023-06-26T05:02:53;8.18;;;5.57;;
23388;SDS011;11867;51.198;11.966;2023-06-26T05:04:23;8.98;;;6.20;;
23388;SDS011;11867;51.198;11.966;2023-06-26T05:05:46;8.85;;;6.53;;
23388;SDS011;11867;51.198;11.966;2023-06-26T05:07:09;7.93;;;6.05;;
23388;SDS011;11867;51.198;11.966;2023-06-26T05:08:32;8.35;;;5.53;;
23388;SDS011;11867;51.198;11.966;2023-06-26T05:09:55;9.90;;;5.88;;
23388;SDS011;11867;51.198;11.966;2023-06-26T05:11:18;7.30;;;5.47;;
23388;SDS011;11867;51.198;11.966;2023-06-26T05:12:41;9.93;;;6.10;;
23388;SDS011;11867;51.198;11.966;2023-06-26T05:14:03;10.85;;;5.85;;
23388;SDS011;11867;51.198;11.966;2023-06-26T05:15:29;10.98;;;6.15;;
23388;SDS011;11867;51.198;11.966;2023-06-26T05:16:53;11.70;;;5.65;;
23388;SDS011;11867;51.198;11.966;2023-06-26T05:18:16;8.13;;;5.53;;
23388;SDS011;11867;51.198;11.966;2023-06-26T05:19:38;9.25;;;6.72;;
23388;SDS011;11867;51.198;11.966;2023-06-26T05:21:04;6.75;;;5.57;;
23388;SDS011;11867;51.198;11.966;2023-06-26T05:22:28;7.43;;;5.68;;
23388;SDS011;11867;51.198;11.966;2023-06-26T05:23:51;7.15;;;6.18;;
23388;SDS011;11867;51.198;11.966;2023-06-26T05:25:18;7.45;;;5.93;;
23388;SDS011;11867;51.198;11.966;2023-06-26T05:26:43;7.90;;;5.63;;
23388;SDS011;11867;51.198;11.966;2023-06-26T05:28:06;8.73;;;5.85;;
23388;SDS011;11867;51.198;11.966;2023-06-26T05:29:32;9.05;;;6.25;;
23388;SDS011;11867;51.198;11.966;2023-06-26T05:30:59;10.68;;;6.65;;
23388;SDS011;11867;51.198;11.966;2023-06-26T05:32:24;10.00;;;5.93;;
23388;SDS011;11867;51.198;11.966;2023-06-26T05:33:48;8.52;;;6.00;;
23388;SDS011;11867;51.198;11.966;2023-06-26T05:35:12;5.25;;;4.65;;
23388;SDS011;11867;51.198;11.966;2023-06-26T05:36:36;8.63;;;6.10;;
23388;SDS011;11867;51.198;11.966;2023-06-26T05:37:59;5.82;;;5.15;;
23388;SDS011;11867;51.198;11.966;2023-06-26T05:39:23;7.80;;;5.80;;
23388;SDS011;11867;51.198;11.966;2023-06-26T05:40:47;8.90;;;6.10;;
23388;SDS011;11867;51.198;11.966;2023-06-26T05:42:11;6.68;;;5.35;;
23388;SDS011;11867;51.198;11.966;2023-06-26T05:43:34;10.98;;;6.28;;
23388;SDS011;11867;51.198;11.966;2023-06-26T05:44:58;7.93;;;5.50;;
23388;SDS011;11867;51.198;11.966;2023-06-26T05:46:21;9.75;;;6.30;;
23388;SDS011;11867;51.198;11.966;2023-06-26T05:47:45;7.22;;;5.55;;
23388;SDS011;11867;51.198;11.966;2023-06-26T05:49:10;8.25;;;5.82;;
23388;SDS011;11867;51.198;11.966;2023-06-26T05:50:36;10.25;;;5.78;;
23388;SDS011;11867;51.198;11.966;2023-06-26T05:52:00;10.13;;;6.50;;
23388;SDS011;11867;51.198;11.966;2023-06-26T05:53:22;9.38;;;6.80;;
23388;SDS011;11867;51.198;11.966;2023-06-26T05:54:46;7.30;;;6.00;;
23388;SDS011;11867;51.198;11.966;2023-06-26T05:56:10;9.48;;;6.70;;
23388;SDS011;11867;51.198;11.966;2023-06-26T05:57:33;7.07;;;6.20;;
23388;SDS011;11867;51.198;11.966;2023-06-26T05:58:57;9.05;;;6.78;;
23388;SDS011;11867;51.198;11.966;2023-06-26T06:00:21;9.40;;;6.32;;
23388;SDS011;11867;51.198;11.966;2023-06-26T06:01:44;12.27;;;5.57;;
23388;SDS011;11867;51.198;11.966;2023-06-26T06:03:10;7.43;;;5.47;;
23388;SDS011;11867;51.198;11.966;2023-06-26T06:04:32;8.35;;;6.22;;
23388;SDS011;11867;51.198;11.966;2023-06-26T06:05:56;14.82;;;6.63;;
23388;SDS011;11867;51.198;11.966;2023-06-26T06:07:19;6.93;;;5.90;;
23388;SDS011;11867;51.198;11.966;2023-06-26T06:08:43;9.45;;;6.38;;
23388;SDS011;11867;51.198;11.966;2023-06-26T06:10:10;6.95;;;6.25;;
23388;SDS011;11867;51.198;11.966;2023-06-26T06:11:32;8.45;;;6.13;;
23388;SDS011;11867;51.198;11.966;2023-06-26T06:12:55;8.85;;;6.43;;
23388;SDS011;11867;51.198;11.966;2023-06-26T06:14:18;7.05;;;5.97;;
23388;SDS011;11867;51.198;11.966;2023-06-26T06:15:41;6.90;;;6.13;;
23388;SDS011;11867;51.198;11.966;2023-06-26T06:17:04;7.47;;;5.78;;
23388;SDS011;11867;51.198;11.966;2023-06-26T06:18:27;7.35;;;6.55;;
23388;SDS011;11867;51.198;11.966;2023-06-26T06:19:50;7.07;;;6.38;;
23388;SDS011;11867;51.198;11.966;2023-06-26T06:21:12;12.20;;;6.78;;
23388;SDS011;11867;51.198;11.966;2023-06-26T06:22:35;8.93;;;7.00;;
23388;SDS011;11867;51.198;11.966;2023-06-26T06:23:58;9.85;;;8.07;;
23388;SDS011;11867;51.198;11.966;2023-06-26T06:25:25;8.60;;;6.63;;
23388;SDS011;11867;51.198;11.966;2023-06-26T06:26:48;8.20;;;6.43;;
23388;SDS011;11867;51.198;11.966;2023-06-26T06:28:11;7.78;;;6.72;;
23388;SDS011;11867;51.198;11.966;2023-06-26T06:29:37;7.53;;;6.75;;
23388;SDS011;11867;51.198;11.966;2023-06-26T06:31:00;9.05;;;6.32;;
23388;SDS011;11867;51.198;11.966;2023-06-26T06:32:23;8.25;;;6.70;;
23388;SDS011;11867;51.198;11.966;2023-06-26T06:33:47;7.00;;;6.40;;
23388;SDS011;11867;51.198;11.966;2023-06-26T06:35:11;8.73;;;6.80;;
23388;SDS011;11867;51.198;11.966;2023-06-26T06:36:33;8.45;;;6.60;;
23388;SDS011;11867;51.198;11.966;2023-06-26T06:37:56;6.55;;;5.95;;
23388;SDS011;11867;51.198;11.966;2023-06-26T06:39:18;7.95;;;7.13;;
23388;SDS011;11867;51.198;11.966;2023-06-26T06:40:41;6.82;;;6.13;;
23388;SDS011;11867;51.198;11.966;2023-06-26T06:42:04;9.07;;;6.47;;
23388;SDS011;11867;51.198;11.966;2023-06-26T06:43:27;7.97;;;7.00;;
23388;SDS011;11867;51.198;11.966;2023-06-26T06:44:50;7.03;;;6.32;;
23388;SDS011;11867;51.198;11.966;2023-06-26T06:46:13;7.55;;;6.75;;
23388;SDS011;11867;51.198;11.966;2023-06-26T06:47:36;7.47;;;6.78;;
23388;SDS011;11867;51.198;11.966;2023-06-26T06:49:00;7.47;;;6.70;;
23388;SDS011;11867;51.198;11.966;2023-06-26T06:50:27;8.18;;;6.68;;
23388;SDS011;11867;51.198;11.966;2023-06-26T06:51:50;7.47;;;6.70;;
23388;SDS011;11867;51.198;11.966;2023-06-26T06:53:12;7.25;;;6.55;;
23388;SDS011;11867;51.198;11.966;2023-06-26T06:54:50;6.65;;;6.05;;
23388;SDS011;11867;51.198;11.966;2023-06-26T06:56:14;12.20;;;6.78;;
23388;SDS011;11867;51.198;11.966;2023-06-26T06:57:37;7.20;;;6.47;;
23388;SDS011;11867;51.198;11.966;2023-06-26T06:59:01;9.35;;;6.50;;
23388;SDS011;11867;51.198;11.966;2023-06-26T07:00:23;7.03;;;6.32;;
23388;SDS011;11867;51.198;11.966;2023-06-26T07:01:47;7.00;;;6.30;;
23388;SDS011;11867;51.198;11.966;2023-06-26T07:03:09;7.75;;;6.60;;
23388;SDS011;11867;51.198;11.966;2023-06-26T07:04:33;8.10;;;6.32;;
23388;SDS011;11867;51.198;11.966;2023-06-26T07:05:56;7.03;;;6.32;;
23388;SDS011;11867;51.198;11.966;2023-06-26T07:07:19;7.65;;;6.75;;
23388;SDS011;11867;51.198;11.966;2023-06-26T07:08:42;7.05;;;6.35;;
23388;SDS011;11867;51.198;11.966;2023-06-26T07:10:05;7.28;;;6.22;;
23388;SDS011;11867;51.198;11.966;2023-06-26T07:11:30;8.23;;;6.65;;
23388;SDS011;11867;51.198;11.966;2023-06-26T07:12:54;7.22;;;6.53;;
23388;SDS011;11867;51.198;11.966;2023-06-26T07:14:17;8.68;;;6.10;;
23388;SDS011;11867;51.198;11.966;2023-06-26T07:15:39;7.20;;;6.50;;
23388;SDS011;11867;51.198;11.966;2023-06-26T07:17:01;7.50;;;6.80;;
23388;SDS011;11867;51.198;11.966;2023-06-26T07:18:24;6.97;;;6.03;;
23388;SDS011;11867;51.198;11.966;2023-06-26T07:19:49;8.38;;;6.85;;
23388;SDS011;11867;51.198;11.966;2023-06-26T07:21:12;7.00;;;6.30;;
23388;SDS011;11867;51.198;11.966;2023-06-26T07:22:35;15.52;;;6.70;;
23388;SDS011;11867;51.198;11.966;2023-06-26T07:23:58;10.60;;;6.65;;
23388;SDS011;11867;51.198;11.966;2023-06-26T07:25:21;7.47;;;6.57;;
23388;SDS011;11867;51.198;11.966;2023-06-26T07:26:44;6.78;;;6.00;;
23388;SDS011;11867;51.198;11.966;2023-06-26T07:28:11;7.35;;;6.47;;
23388;SDS011;11867;51.198;11.966;2023-06-26T07:29:35;8.18;;;6.05;;
23388;SDS011;11867;51.198;11.966;2023-06-26T07:30:58;7.40;;;6.70;;
23388;SDS011;11867;51.198;11.966;2023-06-26T07:32:21;7.25;;;6.30;;
23388;SDS011;11867;51.198;11.966;2023-06-26T07:33:44;6.78;;;6.18;;
23388;SDS011;11867;51.198;11.966;2023-06-26T07:35:08;7.30;;;6.40;;
23388;SDS011;11867;51.198;11.966;2023-06-26T07:36:31;8.15;;;6.18;;
23388;SDS011;11867;51.198;11.966;2023-06-26T07:37:54;6.57;;;5.90;;
23388;SDS011;11867;51.198;11.966;2023-06-26T07:39:17;8.40;;;6.57;;
23388;SDS011;11867;51.198;11.966;2023-06-26T07:40:44;6.18;;;5.57;;
23388;SDS011;11867;51.198;11.966;2023-06-26T07:42:07;7.45;;;5.95;;
23388;SDS011;11867;51.198;11.966;2023-06-26T07:43:30;6.00;;;5.40;;
23388;SDS011;11867;51.198;11.966;2023-06-26T07:44:53;8.02;;;6.68;;
23388;SDS011;11867;51.198;11.966;2023-06-26T07:46:17;7.00;;;5.68;;
23388;SDS011;11867;51.198;11.966;2023-06-26T07:47:40;7.00;;;6.30;;
23388;SDS011;11867;51.198;11.966;2023-06-26T07:49:03;6.63;;;6.03;;
23388;SDS011;11867;51.198;11.966;2023-06-26T07:50:28;6.80;;;5.88;;
23388;SDS011;11867;51.198;11.966;2023-06-26T07:51:51;6.43;;;5.82;;
23388;SDS011;11867;51.198;11.966;2023-06-26T07:53:13;6.88;;;5.75;;
23388;SDS011;11867;51.198;11.966;2023-06-26T07:54:37;6.88;;;5.65;;
23388;SDS011;11867;51.198;11.966;2023-06-26T07:56:00;6.78;;;5.95;;
23388;SDS011;11867;51.198;11.966;2023-06-26T07:57:23;7.45;;;6.30;;
23388;SDS011;11867;51.198;11.966;2023-06-26T07:58:46;7.95;;;6.55;;
23388;SDS011;11867;51.198;11.966;2023-06-26T08:00:09;7.57;;;6.68;;
23388;SDS011;11867;51.198;11.966;2023-06-26T08:01:33;6.50;;;5.82;;
23388;SDS011;11867;51.198;11.966;2023-06-26T08:02:56;9.07;;;6.55;;
23388;SDS011;11867;51.198;11.966;2023-06-26T08:04:19;6.53;;;5.80;;
23388;SDS011;11867;51.198;11.966;2023-06-26T08:05:45;7.28;;;5.70;;
23388;SDS011;11867;51.198;11.966;2023-06-26T08:07:08;7.13;;;5.75;;
23388;SDS011;11867;51.198;11.966;2023-06-26T08:08:30;8.50;;;5.82;;
23388;SDS011;11867;51.198;11.966;2023-06-26T08:09:53;8.48;;;5.90;;
23388;SDS011;11867;51.198;11.966;2023-06-26T08:11:16;6.75;;;6.13;;
23388;SDS011;11867;51.198;11.966;2023-06-26T08:12:39;6.45;;;5.88;;
23388;SDS011;11867;51.198;11.966;2023-06-26T08:14:04;8.02;;;5.90;;
23388;SDS011;11867;51.198;11.966;2023-06-26T08:15:27;6.57;;;5.63;;
23388;SDS011;11867;51.198;11.966;2023-06-26T08:16:50;7.40;;;6.60;;
23388;SDS011;11867;51.198;11.966;2023-06-26T08:18:13;6.50;;;5.80;;